Main page
METAR-TAF:

METAR-TAF

Airports :

Aviano, Italy

Aviano Air Base

latitude: 46-02N, longitude: 012-36E, elevation: 128 m

Current weather observation

The report was made 34 minutes ago, at 18:55 UTC
Wind 2 kt from the Northeast
Temperature 13°C
Humidity 94%
Pressure 1019 hPa
Visibility: 6000 m
Scattered clouds at a height of 2000 ft
Broken clouds at a height of 3000 ft

METAR: LIPA 211855Z 04002KT 6000 SCT020 BKN030 13/12 Q1019 RMK BKN VIS MIN 4000 WIND THR05 /////KT WIND THR23 /////KT A3010 GRN

Time: 21:29 (19:29 UTC)

Forecast

The report was made 2 hours and 29 minutes ago, at 17:00 UTC
Forecast valid from 21 at 18 UTC to 22 at 03 UTC
Wind 3 kt from variable directions
Visibility: 3000 m
Scattered clouds at a height of 2000 ft
Broken clouds at a height of 3000 ft
mist
Temporary
from 21 at 20 UTC to 22 at 03 UTC
Visibility: 2000 m
Broken clouds at a height of 1500 ft
mist

TAF: LIPA 211700Z 2118/2203 VRB03KT 3000 BR SCT020 BKN030 TEMPO 2120/2203 2000 BR BKN015

Weather observations and forecasts of more than 4000 airports (METAR and TAF reports).

The available stations are represented by yellow and red dots on the map.

Hover mouse over dot to see the name of the station.

Then click to see weather observations and forecasts.

To change the map : click on the green buttons with a black cross to zoom in, on the green button with a dash to zoom out, or on the green arrows for adjacent maps.


METAR-TAF: